createdAt,value
2022-08-19T00:01:31.171Z,93860.69
2022-08-19T00:04:00.342Z,93870.41
2022-08-19T00:06:29.622Z,93863.84
2022-08-19T00:08:56.832Z,93863.38
2022-08-19T00:11:25.309Z,93865.97
2022-08-19T00:13:52.554Z,93848.47
2022-08-19T00:16:25.227Z,93859.84
2022-08-19T00:18:52.984Z,93864.38
2022-08-19T00:21:19.690Z,93868.84
2022-08-19T00:23:46.394Z,93865.34
2022-08-19T00:26:13.111Z,93856.25
2022-08-19T00:28:39.790Z,93843.41
2022-08-19T00:31:09.084Z,93840.69
2022-08-19T00:33:35.852Z,93835.72
2022-08-19T00:36:06.513Z,93842.88
2022-08-19T00:38:37.756Z,93844.31
2022-08-19T00:41:06.811Z,93843.47
2022-08-19T00:43:33.927Z,93840.84
2022-08-19T00:46:02.433Z,93851.41
2022-08-19T00:48:29.464Z,93852.88
2022-08-19T00:50:56.567Z,93858.50
2022-08-19T00:53:27.420Z,93862.94
2022-08-19T00:55:57.483Z,93864.06
2022-08-19T00:58:29.344Z,93864.41
2022-08-19T01:00:56.094Z,93861.75
2022-08-19T01:03:23.464Z,93858.72
2022-08-19T01:05:53.112Z,93862.81
2022-08-19T01:08:21.017Z,93861.28
2022-08-19T01:10:55.239Z,93853.34
2022-08-19T01:13:26.678Z,93856.44
2022-08-19T01:15:57.527Z,93860.16
2022-08-19T01:18:25.440Z,93861.28
2022-08-19T01:20:55.302Z,93866.13
2022-08-19T01:23:22.018Z,93868.38
2022-08-19T01:25:53.471Z,93869.06
2022-08-19T01:28:34.018Z,93863.38
2022-08-19T01:31:01.160Z,93866.75
2022-08-19T01:33:34.883Z,93862.25
2022-08-19T01:36:07.790Z,93861.41
2022-08-19T01:38:44.389Z,93855.28
2022-08-19T01:41:13.428Z,93855.97
2022-08-19T01:44:17.199Z,93859.75
2022-08-19T01:46:26.912Z,93857.44
2022-08-19T01:48:53.484Z,93857.38
2022-08-19T01:51:20.148Z,93854.31
2022-08-19T01:53:51.471Z,93860.00
2022-08-19T01:56:19.922Z,93859.25
2022-08-19T01:58:56.672Z,93855.00
2022-08-19T02:01:23.473Z,93859.59
2022-08-19T02:03:55.108Z,93861.03
2022-08-19T02:06:26.780Z,93866.97
2022-08-19T02:08:57.336Z,93863.16
2022-08-19T02:11:32.448Z,93859.25
2022-08-19T02:14:01.016Z,93871.25
2022-08-19T02:16:27.674Z,93871.63
2022-08-19T02:18:54.324Z,93874.94
2022-08-19T02:21:22.877Z,93872.63
2022-08-19T02:23:51.095Z,93871.88
2022-08-19T02:26:18.462Z,93870.34
2022-08-19T02:28:45.075Z,93871.88
2022-08-19T02:31:18.097Z,93867.34
2022-08-19T02:33:46.097Z,93857.53
2022-08-19T02:36:14.573Z,93851.03
2022-08-19T02:38:43.121Z,93858.22
2022-08-19T02:41:18.828Z,93844.59
2022-08-19T02:44:29.303Z,93846.91
2022-08-19T02:46:34.557Z,93852.16
2022-08-19T02:49:06.206Z,93845.34
2022-08-19T02:51:39.661Z,93844.59
2022-08-19T02:54:07.471Z,93838.56
2022-08-19T02:56:36.369Z,93855.22
2022-08-19T02:59:03.687Z,93857.16
2022-08-19T03:01:33.113Z,93857.59
2022-08-19T03:04:02.606Z,93861.34
2022-08-19T03:06:30.089Z,93862.03
2022-08-19T03:08:57.808Z,93855.31
2022-08-19T03:11:28.061Z,93846.25
2022-08-19T03:13:55.373Z,93834.63
2022-08-19T03:16:24.657Z,93834.22
2022-08-19T03:18:52.308Z,93833.84
2022-08-19T03:21:24.862Z,93838.34
2022-08-19T03:23:55.023Z,93840.16
2022-08-19T03:26:21.646Z,93843.91
2022-08-19T03:28:51.832Z,93843.91
2022-08-19T03:31:45.481Z,93852.16
2022-08-19T03:34:15.440Z,93854.38
2022-08-19T03:36:42.345Z,93852.84
2022-08-19T03:39:09.519Z,93853.63
2022-08-19T03:41:45.487Z,93866.44
2022-08-19T03:44:21.736Z,93861.16
2022-08-19T03:46:51.429Z,93855.91
2022-08-19T03:49:19.014Z,93857.44
2022-08-19T03:51:49.207Z,93858.63
2022-08-19T03:54:19.589Z,93859.81
2022-08-19T03:56:49.438Z,93859.13
2022-08-19T03:59:22.335Z,93851.22
2022-08-19T04:01:48.931Z,93858.34
2022-08-19T04:04:15.532Z,93852.31
2022-08-19T04:06:42.227Z,93860.22
2022-08-19T04:09:12.227Z,93853.00
2022-08-19T04:11:44.493Z,93840.94
2022-08-19T04:14:20.553Z,93846.22
2022-08-19T04:16:48.546Z,93847.66
2022-08-19T04:19:16.188Z,93833.31
2022-08-19T04:21:45.214Z,93845.28
2022-08-19T04:24:12.815Z,93846.41
2022-08-19T04:26:40.047Z,93848.63
2022-08-19T04:29:12.497Z,93856.53
2022-08-19T04:31:41.072Z,93856.09
2022-08-19T04:34:09.402Z,93852.00
2022-08-19T04:36:37.894Z,93851.25
2022-08-19T04:39:16.560Z,93839.84
2022-08-19T04:42:01.958Z,93852.75
2022-08-19T04:44:31.561Z,93847.56
2022-08-19T04:47:01.442Z,93850.22
2022-08-19T04:49:28.667Z,93858.53
2022-08-19T04:51:55.628Z,93849.13
2022-08-19T04:54:38.562Z,93859.66
2022-08-19T04:57:11.164Z,93860.34
2022-08-19T04:59:39.626Z,93865.25
2022-08-19T05:02:09.299Z,93872.41
2022-08-19T05:04:39.591Z,93878.13
2022-08-19T05:07:10.933Z,93877.75
2022-08-19T05:09:58.345Z,93883.81
2022-08-19T05:12:28.975Z,93889.06
2022-08-19T05:14:57.890Z,93889.06
2022-08-19T05:17:30.999Z,93882.94
2022-08-19T05:20:18.646Z,93892.13
2022-08-19T05:22:48.107Z,93898.59
2022-08-19T05:25:20.102Z,93900.44
2022-08-19T05:27:48.147Z,93898.59
2022-08-19T05:30:15.441Z,93905.72
2022-08-19T05:32:43.498Z,93910.31
2022-08-19T05:35:10.674Z,93915.25
2022-08-19T05:37:37.641Z,93923.94
2022-08-19T05:40:05.298Z,93928.84
2022-08-19T05:42:32.740Z,93920.94
2022-08-19T05:44:59.429Z,93930.03
2022-08-19T05:47:26.124Z,93928.09
2022-08-19T05:49:52.791Z,93936.00
2022-08-19T05:52:26.074Z,93930.72
2022-08-19T05:54:56.130Z,93922.03
2022-08-19T05:57:23.341Z,93932.25
2022-08-19T05:59:53.224Z,93938.31
2022-08-19T06:02:29.071Z,93928.94
2022-08-19T06:04:55.757Z,93931.59
2022-08-19T06:07:23.103Z,93921.72
2022-08-19T06:10:00.748Z,93932.25
2022-08-19T06:12:32.576Z,93929.63
2022-08-19T06:15:01.652Z,93930.72
2022-08-19T06:17:31.690Z,93929.91
2022-08-19T06:19:59.267Z,93923.00
2022-08-19T06:22:25.970Z,93926.81
2022-08-19T06:24:54.586Z,93924.13
2022-08-19T06:27:22.642Z,93923.69
2022-08-19T06:29:49.950Z,93919.16
2022-08-19T06:32:18.816Z,93913.91
2022-08-19T06:34:45.634Z,93920.31
2022-08-19T06:37:13.794Z,93919.16
2022-08-19T06:39:42.482Z,93921.03
2022-08-19T06:42:12.502Z,93917.66
2022-08-19T06:44:43.243Z,93919.44
2022-08-19T06:47:25.136Z,93910.84
2022-08-19T06:50:03.954Z,93917.91
2022-08-19T06:52:34.242Z,93921.31
2022-08-19T06:55:06.076Z,93919.34
2022-08-19T06:57:34.920Z,93915.19
2022-08-19T07:00:02.054Z,93922.75
2022-08-19T07:02:28.729Z,93916.72
2022-08-19T07:04:58.343Z,93918.25
2022-08-19T07:07:25.762Z,93924.72
2022-08-19T07:09:58.996Z,93927.75
2022-08-19T07:12:33.941Z,93924.34
2022-08-19T07:15:04.703Z,93930.06
2022-08-19T07:17:31.855Z,93929.72
2022-08-19T07:20:06.739Z,93929.03
2022-08-19T07:22:36.043Z,93935.16
2022-08-19T07:25:04.731Z,93931.50
2022-08-19T07:27:33.447Z,93931.22
2022-08-19T07:30:00.914Z,93933.53
2022-08-19T07:32:27.812Z,93942.19
2022-08-19T07:34:55.420Z,93938.03
2022-08-19T07:37:24.285Z,93939.91
2022-08-19T07:39:50.923Z,93946.28
2022-08-19T07:42:19.037Z,93943.66
2022-08-19T07:44:50.190Z,93943.66
2022-08-19T07:47:49.241Z,93938.38
2022-08-19T07:50:09.598Z,93941.44
2022-08-19T07:52:39.619Z,93942.97
2022-08-19T07:55:40.624Z,93956.16
2022-08-19T07:57:56.620Z,93958.00
2022-08-19T08:00:24.625Z,93949.78
2022-08-19T08:02:52.970Z,93942.28
2022-08-19T08:05:43.999Z,93941.59
2022-08-19T08:08:30.588Z,93946.53
2022-08-19T08:10:57.451Z,93941.59
2022-08-19T08:13:25.577Z,93936.75
2022-08-19T08:15:55.873Z,93936.06
2022-08-19T08:18:27.375Z,93938.88
2022-08-19T08:20:56.229Z,93937.50
2022-08-19T08:23:24.749Z,93944.41
2022-08-19T08:25:53.393Z,93941.41
2022-08-19T08:28:20.366Z,93942.16
2022-08-19T08:30:49.301Z,93942.25
2022-08-19T08:33:30.002Z,93945.97
2022-08-19T08:36:03.946Z,93938.16
2022-08-19T08:38:38.426Z,93949.88
2022-08-19T08:41:35.933Z,93954.47
2022-08-19T08:44:05.545Z,93952.25
2022-08-19T08:46:41.093Z,93952.66
2022-08-19T08:49:16.458Z,93952.25
2022-08-19T08:51:48.392Z,93960.09
2022-08-19T08:54:38.386Z,93960.44
2022-08-19T08:57:18.913Z,93972.53
2022-08-19T08:59:51.803Z,93976.97
2022-08-19T09:02:19.505Z,93976.81
2022-08-19T09:04:46.850Z,93977.06
2022-08-19T09:07:49.141Z,93982.69
2022-08-19T09:10:32.725Z,93986.38
2022-08-19T09:13:13.345Z,93986.19
2022-08-19T09:15:45.875Z,93976.31
2022-08-19T09:18:19.370Z,93982.38
2022-08-19T09:20:48.403Z,93977.59
2022-08-19T09:23:16.120Z,93984.06
2022-08-19T09:25:42.874Z,93976.91
2022-08-19T09:28:20.611Z,93984.16
2022-08-19T09:30:49.487Z,93980.38
2022-08-19T09:33:17.086Z,93981.09
2022-08-19T09:35:53.103Z,93984.84
2022-08-19T09:38:21.878Z,93983.28
2022-08-19T09:40:48.758Z,93988.16
2022-08-19T09:43:15.488Z,93959.50
2022-08-19T09:46:01.182Z,93965.28
2022-08-19T09:48:27.805Z,93963.97
2022-08-19T09:50:54.898Z,93973.47
2022-08-19T09:53:25.340Z,93973.22
2022-08-19T09:55:52.410Z,93977.81
2022-08-19T09:58:22.282Z,93978.66
2022-08-19T10:00:51.535Z,93967.25
2022-08-19T10:03:18.351Z,93973.22
2022-08-19T10:05:54.497Z,93980.69
2022-08-19T10:08:26.841Z,93980.56
2022-08-19T10:10:55.837Z,93978.19
2022-08-19T10:13:27.142Z,93982.59
2022-08-19T10:15:55.699Z,93987.75
2022-08-19T10:18:23.963Z,93984.88
2022-08-19T10:20:53.288Z,93990.44
2022-08-19T10:23:22.124Z,93989.59
2022-08-19T10:25:49.852Z,93989.16
2022-08-19T10:28:19.249Z,94000.06
2022-08-19T10:30:47.211Z,94002.28
2022-08-19T10:33:15.010Z,94006.00
2022-08-19T10:35:42.492Z,93999.19
2022-08-19T10:38:31.425Z,94007.88
2022-08-19T10:40:59.384Z,94009.00
2022-08-19T10:43:26.205Z,94011.63
2022-08-19T10:45:59.415Z,94015.38
2022-08-19T10:48:26.173Z,94014.94
2022-08-19T10:51:12.521Z,94015.28
2022-08-19T10:53:50.571Z,94008.13
2022-08-19T10:56:37.185Z,94013.41
2022-08-19T10:59:05.247Z,94006.28
2022-08-19T11:01:34.302Z,94008.91
2022-08-19T11:04:03.237Z,94002.88
2022-08-19T11:06:31.950Z,94003.28
2022-08-19T11:08:59.025Z,93997.31
2022-08-19T11:11:25.736Z,93993.25
2022-08-19T11:13:53.031Z,93996.66
2022-08-19T11:16:22.692Z,93991.47
2022-08-19T11:18:52.370Z,93997.94
2022-08-19T11:21:32.669Z,94001.34
2022-08-19T11:24:02.499Z,93997.16
2022-08-19T11:26:31.091Z,94000.66
2022-08-19T11:28:59.041Z,94008.34
2022-08-19T11:31:29.804Z,94007.66
2022-08-19T11:34:02.456Z,94002.03
2022-08-19T11:36:30.039Z,94006.97
2022-08-19T11:38:56.817Z,94004.41
2022-08-19T11:41:24.827Z,94013.16
2022-08-19T11:43:54.936Z,94012.81
2022-08-19T11:46:23.618Z,94015.13
2022-08-19T11:48:51.626Z,94013.25
2022-08-19T11:51:22.908Z,94020.41
2022-08-19T11:53:51.276Z,94012.50
2022-08-19T11:56:19.792Z,94013.75
2022-08-19T11:58:46.670Z,94010.69
2022-08-19T12:01:17.113Z,94004.56
2022-08-19T12:03:48.937Z,94006.78
2022-08-19T12:06:19.150Z,94006.34
2022-08-19T12:08:48.450Z,94003.44
2022-08-19T12:11:15.438Z,94000.97
2022-08-19T12:13:45.862Z,94013.22
2022-08-19T12:16:21.248Z,94014.06
2022-08-19T12:18:48.418Z,94017.19
2022-08-19T12:21:17.538Z,94004.75
2022-08-19T12:23:46.344Z,94012.75
2022-08-19T12:26:13.256Z,94008.75
2022-08-19T12:28:40.210Z,94004.56
2022-08-19T12:31:07.076Z,94009.25
2022-08-19T12:33:34.221Z,93999.78
2022-08-19T12:36:05.012Z,94003.13
2022-08-19T12:38:33.195Z,93997.00
2022-08-19T12:41:00.456Z,93999.97
2022-08-19T12:43:28.049Z,93998.38
2022-08-19T12:45:54.635Z,94007.41
2022-08-19T12:48:34.504Z,94005.13
2022-08-19T12:51:07.868Z,94012.28
2022-08-19T12:53:34.958Z,94013.03
2022-08-19T12:56:08.975Z,94018.72
2022-08-19T12:58:39.520Z,94027.06
2022-08-19T13:01:16.026Z,94026.28
2022-08-19T13:03:46.558Z,94037.97
2022-08-19T13:06:13.799Z,94038.66
2022-08-19T13:08:44.221Z,94039.34
2022-08-19T13:11:18.507Z,94044.88
2022-08-19T13:13:48.476Z,94044.38
2022-08-19T13:16:16.653Z,94037.94
2022-08-19T13:18:45.986Z,94031.78
2022-08-19T13:21:14.021Z,94035.88
2022-08-19T13:23:41.687Z,94032.06
2022-08-19T13:26:10.013Z,94031.28
2022-08-19T13:29:09.037Z,94034.69
2022-08-19T13:31:55.454Z,94029.41
2022-08-19T13:34:34.804Z,94035.09
2022-08-19T13:37:04.079Z,94036.22
2022-08-19T13:39:33.334Z,94031.72
2022-08-19T13:42:00.962Z,94035.56
2022-08-19T13:44:30.592Z,94037.50
2022-08-19T13:47:07.839Z,94042.44
2022-08-19T13:49:37.160Z,94029.59
2022-08-19T13:52:05.930Z,94045.94
2022-08-19T13:54:32.615Z,94050.44
2022-08-19T13:56:59.220Z,94049.66
2022-08-19T13:59:26.145Z,94048.13
2022-08-19T14:01:52.849Z,94055.97
2022-08-19T14:04:19.417Z,94059.34
2022-08-19T14:06:46.052Z,94061.50
2022-08-19T14:09:12.646Z,94057.75
2022-08-19T14:11:39.298Z,94059.97
2022-08-19T14:14:06.060Z,94063.72
2022-08-19T14:16:32.739Z,94067.53
2022-08-19T14:18:59.349Z,94070.19
2022-08-19T14:21:26.561Z,94073.16
2022-08-19T14:23:54.139Z,94072.72
2022-08-19T14:26:24.298Z,94079.13
2022-08-19T14:28:53.056Z,94076.06
2022-08-19T14:31:20.159Z,94078.34
2022-08-19T14:33:48.151Z,94079.91
2022-08-19T14:36:14.930Z,94071.53
2022-08-19T14:38:42.486Z,94079.38
2022-08-19T14:41:12.297Z,94074.44
2022-08-19T14:43:39.339Z,94079.72
2022-08-19T14:46:06.787Z,94078.94
2022-08-19T14:48:33.795Z,94083.13
2022-08-19T14:51:00.446Z,94073.34
2022-08-19T14:53:27.088Z,94084.41
2022-08-19T14:55:53.728Z,94073.06
2022-08-19T14:58:29.107Z,94073.84
2022-08-19T15:00:57.495Z,94071.31
2022-08-19T15:03:24.115Z,94073.50
2022-08-19T15:05:50.796Z,94074.94
2022-08-19T15:08:17.398Z,94075.63
2022-08-19T15:10:44.034Z,94076.81
2022-08-19T15:13:10.846Z,94081.34
2022-08-19T15:15:38.257Z,94079.81
2022-08-19T15:18:04.932Z,94085.06
2022-08-19T15:20:31.955Z,94086.16
2022-08-19T15:23:02.142Z,94082.44
2022-08-19T15:25:28.782Z,94092.63
2022-08-19T15:27:55.534Z,94084.72
2022-08-19T15:30:26.559Z,94091.53
2022-08-19T15:32:53.546Z,94092.63
2022-08-19T15:35:20.563Z,94103.53
2022-08-19T15:37:51.118Z,94102.25
2022-08-19T15:40:18.807Z,94105.56
2022-08-19T15:42:45.632Z,94104.25
2022-08-19T15:45:14.036Z,94111.50
2022-08-19T15:47:41.198Z,94119.41
2022-08-19T15:50:12.259Z,94112.25
2022-08-19T15:52:54.427Z,94110.31
2022-08-19T15:55:34.114Z,94111.19
2022-08-19T15:58:28.806Z,94106.69
2022-08-19T16:01:20.791Z,94119.28
2022-08-19T16:04:14.584Z,94114.78
2022-08-19T16:06:52.719Z,94124.38
2022-08-19T16:09:27.033Z,94119.88
2022-08-19T16:11:57.223Z,94134.28
2022-08-19T16:14:28.297Z,94134.28
2022-08-19T16:16:56.774Z,94132.03
2022-08-19T16:19:24.375Z,94126.34
2022-08-19T16:21:52.582Z,94134.16
2022-08-19T16:24:28.510Z,94137.16
2022-08-19T16:26:56.587Z,94133.66
2022-08-19T16:29:33.367Z,94129.56
2022-08-19T16:32:04.006Z,94139.38
2022-08-19T16:34:31.083Z,94140.47
2022-08-19T16:36:57.968Z,94146.09
2022-08-19T16:39:24.628Z,94155.88
2022-08-19T16:41:51.663Z,94155.78
2022-08-19T16:44:20.826Z,94151.97
2022-08-19T16:46:58.385Z,94163.28
2022-08-19T16:49:53.328Z,94160.88
2022-08-19T16:52:14.850Z,94161.53
2022-08-19T16:54:43.624Z,94168.25
2022-08-19T16:57:11.800Z,94172.75
2022-08-19T16:59:42.481Z,94169.25
2022-08-19T17:02:17.948Z,94168.91
2022-08-19T17:04:44.571Z,94174.50
2022-08-19T17:07:24.288Z,94164.31
2022-08-19T17:09:50.965Z,94169.75
2022-08-19T17:12:17.604Z,94168.69
2022-08-19T17:14:46.052Z,94156.69
2022-08-19T17:17:12.899Z,94158.31
2022-08-19T17:19:41.833Z,94147.44
2022-08-19T17:22:11.415Z,94140.72
2022-08-19T17:24:38.560Z,94130.94
2022-08-19T17:27:08.993Z,94146.59
2022-08-19T17:29:35.793Z,94141.41
2022-08-19T17:32:02.687Z,94140.63
2022-08-19T17:34:29.285Z,94139.63
2022-08-19T17:36:58.490Z,94139.19
2022-08-19T17:39:25.502Z,94145.69
2022-08-19T17:41:52.179Z,94147.56
2022-08-19T17:44:19.007Z,94150.63
2022-08-19T17:46:46.791Z,94156.66
2022-08-19T17:49:14.404Z,94152.31
2022-08-19T17:51:45.024Z,94163.19
2022-08-19T17:54:18.637Z,94154.75
2022-08-19T17:56:46.292Z,94158.06
2022-08-19T17:59:14.749Z,94154.69
2022-08-19T18:01:53.740Z,94155.00
2022-08-19T18:04:23.225Z,94155.00
2022-08-19T18:06:53.272Z,94158.41
2022-08-19T18:09:41.511Z,94162.94
2022-08-19T18:12:14.175Z,94167.44
2022-08-19T18:14:41.601Z,94169.31
2022-08-19T18:17:11.499Z,94173.81
2022-08-19T18:19:41.256Z,94174.59
2022-08-19T18:22:29.893Z,94178.75
2022-08-19T18:24:58.250Z,94182.84
2022-08-19T18:27:27.080Z,94183.25
2022-08-19T18:29:59.424Z,94184.38
2022-08-19T18:32:34.546Z,94181.38
2022-08-19T18:35:03.663Z,94182.94
2022-08-19T18:37:30.250Z,94191.94
2022-08-19T18:40:15.226Z,94195.78
2022-08-19T18:43:22.751Z,94199.97
2022-08-19T18:46:08.250Z,94198.00
2022-08-19T18:48:54.947Z,94197.22
2022-08-19T18:51:26.409Z,94203.16
2022-08-19T18:53:57.274Z,94208.00
2022-08-19T18:56:28.296Z,94209.09
2022-08-19T18:58:56.156Z,94202.53
2022-08-19T19:01:29.503Z,94209.75
2022-08-19T19:04:00.530Z,94211.28
2022-08-19T19:06:31.098Z,94215.03
2022-08-19T19:08:58.352Z,94215.72
2022-08-19T19:11:28.128Z,94217.59
2022-08-19T19:13:54.855Z,94217.91
2022-08-19T19:16:24.443Z,94226.16
2022-08-19T19:18:52.852Z,94223.84
2022-08-19T19:21:22.967Z,94223.84
2022-08-19T19:23:50.424Z,94227.59
2022-08-19T19:26:17.674Z,94226.06
2022-08-19T19:28:46.176Z,94232.88
2022-08-19T19:31:19.896Z,94227.50
2022-08-19T19:33:46.670Z,94226.41
2022-08-19T19:36:13.812Z,94231.34
2022-08-19T19:38:48.239Z,94224.09
2022-08-19T19:41:19.936Z,94233.88
2022-08-19T19:43:46.766Z,94237.94
2022-08-19T19:46:15.974Z,94235.22
2022-08-19T19:48:42.573Z,94230.16
2022-08-19T19:51:10.568Z,94229.63
2022-08-19T19:53:37.252Z,94235.25
2022-08-19T19:56:04.316Z,94232.97
2022-08-19T19:58:34.857Z,94245.03
2022-08-19T20:01:02.538Z,94235.16
2022-08-19T20:03:36.240Z,94244.25
2022-08-19T20:06:03.024Z,94243.16
2022-08-19T20:08:47.966Z,94257.13
2022-08-19T20:11:26.854Z,94246.69
2022-08-19T20:13:53.473Z,94257.59
2022-08-19T20:16:20.045Z,94258.69
2022-08-19T20:18:48.403Z,94257.47
2022-08-19T20:21:14.987Z,94255.16
2022-08-19T20:23:44.688Z,94259.34
2022-08-19T20:26:33.784Z,94260.09
2022-08-19T20:29:13.408Z,94258.25
2022-08-19T20:31:57.710Z,94257.47
2022-08-19T20:34:26.218Z,94257.78
2022-08-19T20:36:53.080Z,94261.19
2022-08-19T20:39:19.679Z,94260.00
2022-08-19T20:41:46.284Z,94258.91
2022-08-19T20:44:12.862Z,94250.53
2022-08-19T20:46:39.876Z,94249.88
2022-08-19T20:49:06.513Z,94251.09
2022-08-19T20:51:33.234Z,94246.59
2022-08-19T20:53:59.827Z,94252.31
2022-08-19T20:56:27.544Z,94251.63
2022-08-19T20:58:59.772Z,94265.69
2022-08-19T21:01:26.643Z,94257.78
2022-08-19T21:03:53.380Z,94252.06
2022-08-19T21:06:20.518Z,94257.78
2022-08-19T21:08:49.805Z,94260.06
2022-08-19T21:11:20.643Z,94249.63
2022-08-19T21:13:48.337Z,94247.41
2022-08-19T21:16:14.939Z,94246.75
2022-08-19T21:18:41.764Z,94241.94
2022-08-19T21:21:08.336Z,94242.69
2022-08-19T21:23:35.009Z,94238.19
2022-08-19T21:26:01.729Z,94246.97
2022-08-19T21:28:34.550Z,94246.63
2022-08-19T21:31:04.012Z,94246.31
2022-08-19T21:33:32.108Z,94248.59
2022-08-19T21:36:00.164Z,94247.81
2022-08-19T21:38:27.497Z,94238.06
2022-08-19T21:40:54.895Z,94240.25
2022-08-19T21:43:22.314Z,94237.53
2022-08-19T21:45:50.474Z,94243.22
2022-08-19T21:48:17.954Z,94231.03
2022-08-19T21:50:48.263Z,94241.03
2022-08-19T21:53:18.678Z,94242.91
2022-08-19T21:55:48.989Z,94247.75
2022-08-19T21:58:19.997Z,94250.28
2022-08-19T22:00:56.458Z,94246.44
2022-08-19T22:03:23.841Z,94245.66
2022-08-19T22:05:50.812Z,94232.47
2022-08-19T22:08:17.474Z,94227.22
2022-08-19T22:10:44.089Z,94232.06
2022-08-19T22:13:13.163Z,94236.88
2022-08-19T22:15:41.016Z,94229.31
2022-08-19T22:18:07.610Z,94233.16
2022-08-19T22:20:34.286Z,94239.19
2022-08-19T22:23:04.079Z,94231.59
2022-08-19T22:25:36.448Z,94227.00
2022-08-19T22:28:06.242Z,94235.16
2022-08-19T22:30:34.669Z,94236.50
2022-08-19T22:33:05.040Z,94233.41
2022-08-19T22:35:34.740Z,94226.50
2022-08-19T22:38:02.377Z,94238.50
2022-08-19T22:40:30.485Z,94237.59
2022-08-19T22:43:10.164Z,94234.88
2022-08-19T22:45:37.140Z,94238.19
2022-08-19T22:48:07.913Z,94235.88
2022-08-19T22:50:38.379Z,94232.81
2022-08-19T22:53:07.481Z,94226.66
2022-08-19T22:55:35.996Z,94235.66
2022-08-19T22:58:02.704Z,94230.72
2022-08-19T23:00:29.659Z,94230.63
2022-08-19T23:02:57.666Z,94229.06
2022-08-19T23:05:27.177Z,94239.63
2022-08-19T23:07:54.548Z,94226.44
2022-08-19T23:10:27.368Z,94235.44
2022-08-19T23:12:56.762Z,94226.78
2022-08-19T23:15:27.485Z,94227.88
2022-08-19T23:17:56.939Z,94226.03
2022-08-19T23:20:27.020Z,94223.38
2022-08-19T23:22:54.694Z,94227.88
2022-08-19T23:25:24.769Z,94226.03
2022-08-19T23:28:10.559Z,94222.59
2022-08-19T23:30:43.642Z,94225.56
2022-08-19T23:33:21.371Z,94227.09
2022-08-19T23:35:48.598Z,94235.34
2022-08-19T23:38:15.205Z,94231.16
2022-08-19T23:40:42.317Z,94226.56
2022-08-19T23:43:09.679Z,94229.31
2022-08-19T23:45:50.981Z,94233.38
2022-08-19T23:48:18.512Z,94232.16
2022-08-19T23:50:46.173Z,94230.97
2022-08-19T23:53:13.593Z,94232.16
2022-08-19T23:55:44.214Z,94233.59
2022-08-19T23:58:11.591Z,94233.59
